Time;durP1;ratioP1;P1;durP2;ratioP2;P2;SDS_P1;SDS_P2;PMS_P1;PMS_P2;Temp;Humidity;BMP_temperature;BMP_pressure;BME280_temperature;BME280_humidity;BME280_pressure;Samples;Min_cycle;Max_cycle;Signal;HPM_P1;HPM_P2
2024/04/05 00:00:17;;;;;;;20.13;3.57;;;11.90;99.90;;;;;;5012572;28;20076;-50
2024/04/05 00:02:45;;;;;;;12.95;2.85;;;11.90;99.90;;;;;;5011239;28;20053;-48
2024/04/05 00:05:12;;;;;;;10.97;2.67;;;11.80;99.90;;;;;;5011601;28;20589;-48
2024/04/05 00:07:38;;;;;;;13.63;2.67;;;11.90;99.90;;;;;;5012196;28;20163;-47
2024/04/05 00:10:07;;;;;;;13.50;3.03;;;12.00;99.90;;;;;;5012546;28;20108;-48
2024/04/05 00:12:34;;;;;;;11.45;2.85;;;12.00;99.90;;;;;;5012933;28;20041;-52
2024/04/05 00:15:00;;;;;;;19.07;3.30;;;12.00;99.90;;;;;;5012521;28;20091;-48
2024/04/05 00:17:26;;;;;;;14.33;2.40;;;12.00;99.90;;;;;;5012472;28;20117;-47
2024/04/05 00:19:54;;;;;;;16.83;4.60;;;12.00;99.90;;;;;;5012364;28;20026;-48
2024/04/05 00:22:22;;;;;;;11.43;2.33;;;12.00;99.90;;;;;;5012695;28;20030;-48
2024/04/05 00:24:48;;;;;;;9.98;3.03;;;12.00;99.90;;;;;;5012455;28;20030;-49
2024/04/05 00:27:14;;;;;;;12.77;3.00;;;11.90;99.90;;;;;;5012151;28;20026;-47
2024/04/05 00:29:39;;;;;;;12.07;2.63;;;12.00;99.90;;;;;;5010721;28;20509;-48
2024/04/05 00:32:05;;;;;;;11.60;3.25;;;12.10;99.90;;;;;;5012460;28;20123;-48
2024/04/05 00:34:31;;;;;;;12.93;2.85;;;12.00;99.90;;;;;;5012083;28;20041;-52
2024/04/05 00:36:57;;;;;;;12.48;2.58;;;12.00;99.90;;;;;;5012325;28;20109;-49
2024/04/05 00:39:22;;;;;;;9.68;2.33;;;12.00;99.90;;;;;;5012107;28;20044;-48
2024/04/05 00:41:48;;;;;;;11.82;2.65;;;12.00;99.90;;;;;;5012075;28;20038;-47
2024/04/05 00:44:14;;;;;;;14.43;2.60;;;11.90;99.90;;;;;;5012127;28;20037;-47
2024/04/05 00:46:40;;;;;;;11.27;2.50;;;12.00;99.90;;;;;;5011774;28;20033;-48
2024/04/05 00:49:07;;;;;;;8.85;2.38;;;12.00;99.90;;;;;;5011978;28;20030;-50
2024/04/05 00:51:33;;;;;;;9.50;2.10;;;12.00;99.90;;;;;;5011880;28;20022;-48
2024/04/05 00:53:59;;;;;;;8.57;2.07;;;11.90;99.90;;;;;;5011565;28;20026;-49
2024/04/05 00:56:25;;;;;;;14.50;2.80;;;11.90;99.90;;;;;;5011559;28;20475;-48
2024/04/05 00:58:51;;;;;;;11.32;2.72;;;11.90;99.90;;;;;;5011802;28;20042;-49
2024/04/05 01:01:17;;;;;;;14.27;2.60;;;11.90;99.90;;;;;;5011705;28;20040;-47
2024/04/05 01:03:42;;;;;;;11.82;2.53;;;11.80;99.90;;;;;;5011799;28;20112;-49
2024/04/05 01:06:09;;;;;;;9.88;2.55;;;11.70;99.90;;;;;;5011035;28;20398;-47
2024/04/05 01:08:34;;;;;;;12.13;2.75;;;11.80;99.90;;;;;;5011714;28;20127;-47
2024/04/05 01:11:00;;;;;;;9.30;2.42;;;11.90;99.90;;;;;;5011522;28;20037;-51
2024/04/05 01:13:25;;;;;;;10.57;2.67;;;11.90;99.90;;;;;;5010103;28;20053;-48
2024/04/05 01:15:51;;;;;;;7.93;2.10;;;11.90;99.90;;;;;;5011436;28;20126;-50
2024/04/05 01:18:17;;;;;;;8.13;1.93;;;11.80;99.90;;;;;;5011734;28;20030;-52
2024/04/05 01:20:45;;;;;;;12.83;1.97;;;11.80;99.90;;;;;;5011333;28;20026;-53
2024/04/05 01:23:14;;;;;;;8.57;1.93;;;11.70;99.90;;;;;;5011489;28;20518;-52
2024/04/05 01:25:40;;;;;;;10.63;2.37;;;11.70;99.90;;;;;;5011144;28;20030;-46
2024/04/05 01:28:11;;;;;;;9.00;2.27;;;11.60;99.90;;;;;;5011298;28;20113;-51
2024/04/05 01:30:37;;;;;;;6.10;1.73;;;11.60;99.90;;;;;;5011179;28;20034;-49
2024/04/05 01:33:03;;;;;;;10.50;2.37;;;11.50;99.90;;;;;;5011429;28;20022;-50
2024/04/05 01:35:29;;;;;;;10.47;2.40;;;11.50;99.90;;;;;;5011138;28;20022;-50
2024/04/05 01:37:55;;;;;;;11.60;2.37;;;11.50;99.90;;;;;;5011113;28;20052;-48
2024/04/05 01:40:22;;;;;;;10.20;2.37;;;11.50;99.90;;;;;;5011036;28;20044;-52
2024/04/05 01:42:47;;;;;;;8.67;2.10;;;11.50;99.90;;;;;;5011304;28;20069;-52
2024/04/05 01:45:13;;;;;;;10.73;2.60;;;11.50;99.90;;;;;;5011038;28;20061;-47
2024/04/05 01:47:39;;;;;;;11.23;2.20;;;11.50;99.90;;;;;;5010961;28;20109;-53
2024/04/05 01:50:05;;;;;;;11.67;2.67;;;11.50;99.90;;;;;;5010908;28;20494;-50
2024/04/05 01:52:31;;;;;;;8.50;2.17;;;11.50;99.90;;;;;;5011126;28;20113;-48
2024/04/05 01:54:57;;;;;;;8.73;2.27;;;11.50;99.90;;;;;;5011028;28;20129;-50
2024/04/05 01:57:23;;;;;;;9.30;2.45;;;11.50;99.90;;;;;;5009586;28;20083;-50
2024/04/05 01:59:50;;;;;;;8.23;2.13;;;11.50;99.90;;;;;;5010879;28;20026;-49
2024/04/05 02:02:16;;;;;;;8.18;2.15;;;11.60;99.90;;;;;;5011110;28;20034;-51
2024/04/05 02:04:42;;;;;;;13.00;2.57;;;11.60;99.90;;;;;;5012853;28;20372;-49
2024/04/05 02:07:07;;;;;;;9.45;1.95;;;11.70;99.90;;;;;;5014976;28;20125;-52
2024/04/05 02:09:33;;;;;;;8.43;2.10;;;11.80;99.90;;;;;;5014845;28;20129;-52
2024/04/05 02:11:59;;;;;;;7.63;2.00;;;11.90;99.90;;;;;;5015037;28;20026;-50
2024/04/05 02:14:26;;;;;;;8.30;2.23;;;11.90;99.90;;;;;;5014819;28;20072;-51
2024/04/05 02:16:54;;;;;;;11.60;2.50;;;11.90;99.90;;;;;;5014946;28;20220;-50
2024/04/05 02:19:20;;;;;;;9.60;2.50;;;12.00;99.90;;;;;;5014762;28;20045;-47
2024/04/05 02:21:46;;;;;;;13.27;2.73;;;12.00;99.90;;;;;;5014592;28;20034;-48
2024/04/05 02:24:11;;;;;;;10.07;2.20;;;12.00;99.90;;;;;;5014766;28;20040;-47
2024/04/05 02:26:37;;;;;;;10.30;2.10;;;12.00;99.90;;;;;;5014621;28;20089;-47
2024/04/05 02:29:02;;;;;;;14.10;3.10;;;12.00;99.90;;;;;;5014632;28;20034;-49
2024/04/05 02:31:28;;;;;;;14.33;2.40;;;12.00;99.90;;;;;;5014816;28;20038;-49
2024/04/05 02:33:53;;;;;;;13.20;2.80;;;12.00;99.90;;;;;;5015028;28;20030;-50
2024/04/05 02:36:19;;;;;;;8.23;2.13;;;12.10;99.90;;;;;;5014179;28;20022;-51
2024/04/05 02:38:45;;;;;;;9.80;2.33;;;12.10;99.90;;;;;;5014592;28;20037;-50
2024/04/05 02:41:11;;;;;;;10.10;2.33;;;12.10;99.90;;;;;;5014146;28;20029;-50
2024/04/05 02:43:37;;;;;;;10.63;2.63;;;12.20;99.90;;;;;;5014596;28;20096;-52
2024/04/05 02:46:03;;;;;;;10.13;1.92;;;12.20;99.90;;;;;;5014022;28;20475;-52
2024/04/05 02:48:29;;;;;;;11.67;2.50;;;12.30;99.90;;;;;;5014222;28;20118;-49
2024/04/05 02:50:55;;;;;;;14.47;2.57;;;12.30;99.90;;;;;;5013886;28;20048;-48
2024/04/05 02:53:21;;;;;;;11.32;2.75;;;12.40;99.90;;;;;;5014188;28;20032;-49
2024/04/05 02:55:46;;;;;;;11.20;1.98;;;12.30;99.90;;;;;;5014005;28;20734;-51
2024/04/05 02:58:12;;;;;;;11.67;2.10;;;12.30;99.90;;;;;;5014113;28;20475;-53
2024/04/05 03:00:39;;;;;;;12.13;2.05;;;12.30;99.90;;;;;;5013882;28;20026;-49
2024/04/05 03:03:05;;;;;;;8.52;2.83;;;12.30;99.90;;;;;;5014367;28;20060;-48
2024/04/05 03:05:31;;;;;;;10.75;2.00;;;12.40;99.90;;;;;;5013659;28;20030;-52
2024/04/05 03:07:57;;;;;;;12.40;2.08;;;12.50;99.90;;;;;;5013821;28;20044;-51
2024/04/05 03:10:22;;;;;;;11.30;2.13;;;12.50;99.90;;;;;;5013615;28;20104;-48
2024/04/05 03:12:51;;;;;;;12.43;2.40;;;12.50;99.90;;;;;;5013903;28;20030;-49
2024/04/05 03:15:16;;;;;;;12.10;2.38;;;12.60;99.90;;;;;;5013430;28;20414;-52
2024/04/05 03:17:43;;;;;;;8.23;2.53;;;12.50;99.90;;;;;;5013325;28;20101;-51
2024/04/05 03:20:12;;;;;;;10.90;2.00;;;12.40;99.90;;;;;;5013375;28;20033;-52
2024/04/05 03:22:38;;;;;;;9.57;2.45;;;12.40;99.90;;;;;;5013852;28;20026;-52
2024/04/05 03:25:05;;;;;;;12.80;2.85;;;12.50;99.90;;;;;;5012338;28;20430;-50
2024/04/05 03:27:30;;;;;;;10.67;1.97;;;12.50;99.90;;;;;;5013484;28;20036;-49
2024/04/05 03:29:56;;;;;;;11.48;2.92;;;12.50;99.90;;;;;;5013308;28;20034;-52
2024/04/05 03:32:22;;;;;;;14.40;2.95;;;12.50;99.90;;;;;;5013520;28;20402;-49
2024/04/05 03:34:47;;;;;;;9.65;2.03;;;12.50;99.90;;;;;;5011859;28;20036;-51
2024/04/05 03:37:13;;;;;;;9.67;2.00;;;12.50;99.90;;;;;;5013356;28;20026;-52
2024/04/05 03:39:39;;;;;;;10.52;2.30;;;12.50;99.90;;;;;;5013112;28;20075;-48
2024/04/05 03:42:05;;;;;;;14.93;2.78;;;12.50;99.90;;;;;;5013383;28;20045;-48
2024/04/05 03:44:31;;;;;;;9.73;2.08;;;12.50;99.90;;;;;;5012920;28;20037;-50
2024/04/05 03:46:56;;;;;;;9.45;2.22;;;12.50;99.90;;;;;;5012902;28;20463;-49
2024/04/05 03:49:22;;;;;;;11.15;2.15;;;12.50;99.90;;;;;;5012790;28;20092;-48
2024/04/05 03:51:48;;;;;;;9.75;1.85;;;12.60;99.90;;;;;;5012821;28;20398;-47
2024/04/05 03:54:14;;;;;;;7.60;2.40;;;12.60;99.90;;;;;;5013216;28;20030;-51
2024/04/05 03:56:39;;;;;;;8.88;2.22;;;12.50;99.90;;;;;;5011441;28;20086;-50
2024/04/05 03:59:05;;;;;;;9.52;2.25;;;12.50;99.90;;;;;;5012881;28;20436;-50
2024/04/05 04:01:31;;;;;;;12.88;2.65;;;12.50;99.90;;;;;;5012917;28;20037;-51
2024/04/05 04:03:57;;;;;;;8.80;2.10;;;12.50;99.90;;;;;;5013018;28;20057;-51
2024/04/05 04:06:22;;;;;;;13.10;2.60;;;12.50;99.90;;;;;;5012468;28;20601;-49
2024/04/05 04:08:48;;;;;;;13.95;2.47;;;12.60;99.90;;;;;;5012088;28;20037;-48
2024/04/05 04:11:14;;;;;;;10.02;2.90;;;12.60;99.90;;;;;;5012334;28;20022;-50
2024/04/05 04:13:39;;;;;;;16.25;4.00;;;12.60;99.90;;;;;;5012759;28;20125;-50
2024/04/05 04:16:05;;;;;;;12.38;2.80;;;12.60;99.90;;;;;;5012298;28;20030;-50
2024/04/05 04:18:31;;;;;;;11.02;2.38;;;12.60;99.90;;;;;;5012459;28;20037;-48
2024/04/05 04:20:57;;;;;;;12.70;2.22;;;12.60;99.90;;;;;;5012197;28;20509;-50
2024/04/05 04:23:23;;;;;;;9.57;1.85;;;12.60;99.90;;;;;;5012691;28;20129;-52
2024/04/05 04:25:50;;;;;;;8.73;2.20;;;12.60;99.90;;;;;;5012151;28;20034;-49
2024/04/05 04:28:17;;;;;;;10.20;2.55;;;12.50;99.90;;;;;;5011278;28;20061;-50
2024/04/05 04:30:45;;;;;;;12.40;2.13;;;12.50;99.90;;;;;;5012195;28;20041;-48
2024/04/05 04:33:13;;;;;;;10.10;2.30;;;12.40;99.90;;;;;;5010653;28;20037;-47
2024/04/05 04:35:39;;;;;;;11.25;2.13;;;12.40;99.90;;;;;;5012044;28;20080;-48
2024/04/05 04:38:04;;;;;;;13.73;2.40;;;12.30;99.90;;;;;;5012119;28;20034;-49
2024/04/05 04:40:30;;;;;;;13.37;3.00;;;12.30;99.90;;;;;;5011873;28;20040;-50
2024/04/05 04:42:55;;;;;;;12.67;2.57;;;12.10;99.90;;;;;;5012084;28;20038;-48
2024/04/05 04:45:21;;;;;;;11.03;2.60;;;12.10;99.90;;;;;;5011805;28;20066;-47
2024/04/05 04:47:47;;;;;;;13.67;2.70;;;12.10;99.90;;;;;;5011547;28;20045;-49
2024/04/05 04:50:13;;;;;;;11.10;2.57;;;12.00;99.90;;;;;;5011628;28;20053;-50
2024/04/05 04:52:39;;;;;;;11.90;2.60;;;12.00;99.90;;;;;;5012006;28;20032;-50
2024/04/05 04:55:05;;;;;;;11.43;2.73;;;12.00;99.90;;;;;;5011886;28;20441;-51
2024/04/05 04:57:32;;;;;;;13.47;2.47;;;12.00;99.90;;;;;;5011806;28;20375;-51
2024/04/05 04:59:58;;;;;;;14.30;2.63;;;12.00;99.90;;;;;;5011648;28;20033;-48
2024/04/05 05:02:24;;;;;;;13.60;3.87;;;11.90;99.90;;;;;;5011937;28;20037;-51
2024/04/05 05:04:49;;;;;;;13.77;2.93;;;12.00;99.90;;;;;;5011786;28;20029;-50
2024/04/05 05:07:15;;;;;;;14.27;3.20;;;11.90;99.90;;;;;;5011713;28;20028;-50
2024/04/05 05:09:40;;;;;;;15.53;3.57;;;12.00;99.90;;;;;;5011538;28;20040;-47
2024/04/05 05:12:06;;;;;;;12.17;2.73;;;12.00;99.90;;;;;;5011849;28;20022;-47
2024/04/05 05:14:32;;;;;;;8.30;2.63;;;12.00;99.90;;;;;;5011561;28;20025;-47
2024/04/05 05:16:57;;;;;;;8.33;2.37;;;12.00;99.90;;;;;;5011407;28;20049;-48
2024/04/05 05:19:23;;;;;;;10.93;2.73;;;12.00;99.90;;;;;;5011551;28;20061;-51
2024/04/05 05:21:49;;;;;;;13.97;2.77;;;12.00;99.90;;;;;;5011580;28;20022;-51
2024/04/05 05:24:15;;;;;;;15.17;3.07;;;12.00;99.90;;;;;;5011621;28;20530;-52
2024/04/05 05:26:40;;;;;;;15.27;2.93;;;12.00;99.90;;;;;;5011303;28;20329;-51
2024/04/05 05:29:06;;;;;;;17.03;3.27;;;12.10;99.90;;;;;;5011482;28;20026;-50
2024/04/05 05:31:31;;;;;;;13.93;4.20;;;12.10;99.90;;;;;;5011118;28;20100;-47
2024/04/05 05:33:57;;;;;;;12.40;3.30;;;12.10;99.90;;;;;;5011351;28;20029;-47
2024/04/05 05:36:23;;;;;;;13.87;2.67;;;12.10;99.90;;;;;;5011120;28;20076;-52
2024/04/05 05:38:48;;;;;;;18.30;3.80;;;12.20;99.90;;;;;;5011145;28;20048;-51
2024/04/05 05:41:15;;;;;;;15.38;3.20;;;12.10;99.90;;;;;;5011236;28;20033;-52
2024/04/05 05:43:40;;;;;;;13.52;3.25;;;12.20;99.90;;;;;;5011548;28;20459;-52
2024/04/05 05:46:06;;;;;;;14.43;4.77;;;12.10;99.90;;;;;;5009666;28;20057;-52
2024/04/05 05:48:32;;;;;;;11.50;3.30;;;12.20;99.90;;;;;;5011059;28;20371;-53
2024/04/05 05:50:59;;;;;;;11.93;3.10;;;12.20;99.90;;;;;;5011121;28;20348;-51
2024/04/05 05:53:25;;;;;;;10.77;3.17;;;12.30;99.90;;;;;;5011198;28;20037;-50
2024/04/05 05:55:51;;;;;;;12.75;3.47;;;12.40;99.90;;;;;;5010872;28;20403;-49
2024/04/05 05:58:17;;;;;;;13.07;3.20;;;12.40;99.90;;;;;;5011256;28;20036;-52
2024/04/05 06:00:43;;;;;;;10.65;3.10;;;12.40;99.90;;;;;;5010830;28;20026;-49
2024/04/05 06:03:09;;;;;;;11.38;3.15;;;12.40;99.90;;;;;;5011145;28;20485;-50
2024/04/05 06:05:36;;;;;;;11.13;2.70;;;12.50;99.90;;;;;;5010985;28;20077;-52
2024/04/05 06:08:02;;;;;;;17.00;7.20;;;12.50;99.90;;;;;;5010815;28;20133;-49
2024/04/05 06:10:27;;;;;;;9.85;2.55;;;12.60;99.90;;;;;;5010644;28;20038;-51
2024/04/05 06:12:53;;;;;;;8.80;3.63;;;12.60;99.90;;;;;;5011039;28;20037;-51
2024/04/05 06:15:18;;;;;;;13.57;3.70;;;12.60;99.90;;;;;;5010571;28;20038;-47
2024/04/05 06:17:47;;;;;;;13.05;3.00;;;12.70;99.90;;;;;;5010654;28;20026;-51
2024/04/05 06:20:15;;;;;;;9.77;2.67;;;12.70;99.90;;;;;;5010558;28;20030;-49
2024/04/05 06:22:41;;;;;;;12.93;3.65;;;12.90;99.90;;;;;;5010828;28;20061;-50
2024/04/05 06:25:08;;;;;;;11.32;2.47;;;12.90;99.90;;;;;;5010716;28;20042;-48
2024/04/05 06:27:35;;;;;;;11.27;2.90;;;13.10;99.90;;;;;;5010596;28;20351;-50
2024/04/05 06:30:01;;;;;;;11.15;2.85;;;13.10;99.90;;;;;;5009115;28;20030;-50
2024/04/05 06:32:27;;;;;;;8.75;2.75;;;13.30;99.90;;;;;;5010665;28;20399;-50
2024/04/05 06:34:52;;;;;;;14.68;3.58;;;13.40;99.90;;;;;;5010589;28;20498;-51
2024/04/05 06:37:18;;;;;;;9.20;2.80;;;13.50;99.90;;;;;;5010633;28;20084;-50
2024/04/05 06:39:44;;;;;;;13.15;2.72;;;13.60;99.90;;;;;;5010387;28;20520;-49
2024/04/05 06:42:10;;;;;;;8.80;2.58;;;13.60;99.90;;;;;;5010537;28;20109;-48
2024/04/05 06:44:39;;;;;;;10.70;3.00;;;13.70;99.90;;;;;;5010632;28;20483;-49
2024/04/05 06:47:08;;;;;;;9.57;2.50;;;13.70;99.90;;;;;;5010435;28;20041;-49
2024/04/05 06:49:37;;;;;;;16.65;3.90;;;13.80;99.90;;;;;;5010458;28;20099;-47
2024/04/05 06:52:05;;;;;;;14.27;2.70;;;13.90;99.90;;;;;;5012862;28;20029;-48
2024/04/05 06:54:43;;;;;;;10.48;2.55;;;14.00;99.90;;;;;;5013893;28;20410;-48
2024/04/05 06:57:09;;;;;;;11.30;2.35;;;14.10;99.90;;;;;;5009584;28;20026;-47
2024/04/05 06:59:36;;;;;;;8.68;2.78;;;14.30;99.90;;;;;;5008055;28;20038;-47
2024/04/05 07:02:03;;;;;;;12.57;3.67;;;14.30;99.90;;;;;;5006949;28;20108;-47
2024/04/05 07:04:30;;;;;;;9.77;3.95;;;14.40;99.90;;;;;;5004111;28;20038;-48
2024/04/05 07:06:55;;;;;;;8.25;4.38;;;14.50;99.90;;;;;;5001791;28;20041;-51
2024/04/05 07:09:31;;;;;;;10.23;2.55;;;14.60;99.90;;;;;;4998398;28;20036;-49
2024/04/05 07:12:02;;;;;;;9.60;2.40;;;14.60;99.90;;;;;;5005825;28;20026;-48
2024/04/05 07:14:29;;;;;;;17.33;4.07;;;14.70;99.90;;;;;;5005302;28;20069;-48
2024/04/05 07:16:55;;;;;;;6.88;1.67;;;14.80;99.90;;;;;;5013564;28;20053;-49
2024/04/05 07:19:21;;;;;;;10.10;2.08;;;14.80;99.90;;;;;;5013492;28;20105;-49
2024/04/05 07:21:50;;;;;;;10.48;1.95;;;14.80;99.90;;;;;;5013577;28;20466;-51
2024/04/05 07:24:16;;;;;;;8.18;1.60;;;14.80;99.90;;;;;;5013721;28;20030;-47
2024/04/05 07:26:44;;;;;;;6.57;1.48;;;14.90;99.90;;;;;;5013474;28;20029;-49
2024/04/05 07:29:10;;;;;;;10.60;1.83;;;14.90;99.90;;;;;;5013428;28;20042;-52
2024/04/05 07:31:37;;;;;;;7.78;1.40;;;15.00;99.90;;;;;;5013491;28;20414;-50
2024/04/05 07:34:03;;;;;;;7.65;1.83;;;15.00;99.90;;;;;;5013539;28;20108;-50
2024/04/05 07:36:29;;;;;;;6.85;1.50;;;15.10;99.90;;;;;;5012916;28;20498;-51
2024/04/05 07:38:55;;;;;;;7.63;1.75;;;15.00;99.90;;;;;;5013626;28;20030;-50
2024/04/05 07:41:21;;;;;;;8.88;1.52;;;15.10;99.90;;;;;;5013217;28;20442;-52
2024/04/05 07:43:46;;;;;;;7.95;1.42;;;15.10;99.90;;;;;;5013405;28;20513;-53
2024/04/05 07:46:12;;;;;;;9.68;2.28;;;15.10;99.90;;;;;;5012993;28;20030;-53
2024/04/05 07:48:38;;;;;;;7.30;1.60;;;15.20;99.90;;;;;;5007522;28;20521;-52
2024/04/05 07:51:04;;;;;;;9.75;2.20;;;15.30;99.90;;;;;;5012803;28;20050;-50
2024/04/05 07:53:30;;;;;;;6.75;1.58;;;15.40;99.90;;;;;;5013278;28;20068;-52
2024/04/05 07:55:56;;;;;;;6.00;1.70;;;15.40;99.90;;;;;;5002291;28;20503;-52
2024/04/05 07:58:22;;;;;;;6.43;1.70;;;15.50;99.90;;;;;;5001424;28;20041;-51
2024/04/05 08:00:48;;;;;;;7.05;1.63;;;15.50;99.90;;;;;;5003078;28;20030;-51
2024/04/05 08:03:14;;;;;;;8.25;1.90;;;15.50;99.90;;;;;;5007412;28;20152;-52
2024/04/05 08:05:40;;;;;;;6.13;2.10;;;15.50;99.90;;;;;;5001675;28;20526;-52
2024/04/05 08:08:06;;;;;;;7.40;1.50;;;15.40;99.90;;;;;;5002398;28;20038;-51
2024/04/05 08:10:31;;;;;;;8.55;1.50;;;15.30;99.90;;;;;;5003566;28;20040;-52
2024/04/05 08:12:58;;;;;;;8.50;1.70;;;15.20;99.90;;;;;;5008591;28;20030;-52
2024/04/05 08:15:24;;;;;;;6.60;1.42;;;15.20;99.90;;;;;;5003337;28;20036;-52
2024/04/05 08:17:50;;;;;;;7.13;1.70;;;15.10;99.90;;;;;;5004536;28;20393;-52
2024/04/05 08:20:19;;;;;;;5.13;1.30;;;15.10;99.90;;;;;;4997995;28;20039;-52
2024/04/05 08:22:44;;;;;;;6.22;1.48;;;15.10;99.90;;;;;;4999562;28;20021;-51
2024/04/05 08:25:10;;;;;;;5.00;1.40;;;15.10;99.90;;;;;;4998762;28;20405;-51
2024/04/05 08:27:36;;;;;;;6.10;1.05;;;15.00;99.90;;;;;;5003394;28;20114;-51
2024/04/05 08:30:02;;;;;;;7.32;1.58;;;15.00;99.90;;;;;;4994295;28;20405;-50
2024/04/05 08:32:28;;;;;;;7.60;1.85;;;14.90;99.90;;;;;;5001407;28;20149;-46
2024/04/05 08:34:55;;;;;;;8.57;1.67;;;15.00;99.90;;;;;;4996720;28;20445;-46
2024/04/05 08:37:21;;;;;;;7.82;1.50;;;15.00;99.90;;;;;;4996448;28;20034;-47
2024/04/05 08:39:47;;;;;;;4.75;1.50;;;15.00;99.90;;;;;;4999097;28;20377;-45
2024/04/05 08:42:14;;;;;;;4.47;1.50;;;15.00;99.90;;;;;;5002281;28;20080;-44
2024/04/05 08:44:44;;;;;;;7.72;1.75;;;15.00;99.90;;;;;;5011518;28;20442;-46
2024/04/05 08:47:10;;;;;;;3.70;1.05;;;15.10;99.90;;;;;;5009512;28;20053;-45
2024/04/05 08:49:37;;;;;;;8.27;1.65;;;15.00;99.90;;;;;;5011577;28;20041;-46
2024/04/05 08:52:03;;;;;;;8.32;1.60;;;15.00;99.90;;;;;;5011484;28;20395;-44
2024/04/05 08:54:32;;;;;;;7.85;1.77;;;15.10;99.90;;;;;;5011332;28;20034;-46
2024/04/05 08:57:00;;;;;;;4.75;1.35;;;15.10;99.90;;;;;;5006297;28;20048;-47
2024/04/05 08:59:30;;;;;;;6.75;1.45;;;15.10;99.90;;;;;;5011154;28;20049;-51
2024/04/05 09:02:00;;;;;;;8.13;1.52;;;15.10;99.90;;;;;;5005415;28;20085;-53
2024/04/05 09:04:26;;;;;;;8.13;2.40;;;15.10;99.90;;;;;;5001845;28;20037;-53
2024/04/05 09:06:55;;;;;;;5.43;1.55;;;15.10;99.90;;;;;;4999224;28;20037;-52
2024/04/05 09:09:28;;;;;;;7.40;1.50;;;15.10;99.90;;;;;;5010948;28;20033;-52
2024/04/05 09:12:11;;;;;;;6.95;2.05;;;15.10;99.90;;;;;;5011378;28;20456;-53
2024/04/05 09:14:37;;;;;;;6.85;1.50;;;15.20;99.90;;;;;;5010348;28;20026;-53
2024/04/05 09:17:13;;;;;;;6.65;1.90;;;15.20;99.90;;;;;;5011271;28;20367;-50
2024/04/05 09:19:38;;;;;;;6.13;1.70;;;15.20;99.90;;;;;;5010907;28;20117;-52
2024/04/05 09:22:05;;;;;;;9.38;1.50;;;15.30;99.90;;;;;;5010932;28;20431;-50
2024/04/05 09:24:31;;;;;;;6.78;1.88;;;15.40;99.90;;;;;;5010798;28;20030;-52
2024/04/05 09:27:06;;;;;;;10.35;2.35;;;15.40;99.90;;;;;;5010734;28;20052;-52
2024/04/05 09:29:32;;;;;;;6.72;1.60;;;15.50;99.90;;;;;;5010277;28;20030;-50
2024/04/05 09:31:58;;;;;;;7.53;1.70;;;15.70;99.90;;;;;;5009512;28;20052;-53
2024/04/05 09:34:25;;;;;;;6.10;1.50;;;15.70;99.90;;;;;;5010847;28;20034;-53
2024/04/05 09:36:54;;;;;;;6.00;1.40;;;15.70;99.90;;;;;;5010917;28;20513;-53
2024/04/05 09:39:24;;;;;;;5.88;1.90;;;15.80;99.90;;;;;;5010786;28;20033;-50
2024/04/05 09:41:55;;;;;;;7.50;1.90;;;15.90;99.90;;;;;;5010726;28;20090;-52
2024/04/05 09:44:21;;;;;;;6.97;1.60;;;16.00;99.90;;;;;;5010685;28;20084;-49
2024/04/05 09:46:47;;;;;;;6.60;1.50;;;16.00;99.90;;;;;;5010712;28;20470;-51
2024/04/05 09:49:14;;;;;;;10.05;2.03;;;15.90;99.90;;;;;;5010640;28;20080;-50
2024/04/05 09:51:44;;;;;;;6.45;1.80;;;15.80;99.90;;;;;;5010569;28;20034;-50
2024/04/05 09:54:19;;;;;;;4.72;1.40;;;15.60;99.90;;;;;;5010311;28;20037;-52
2024/04/05 09:56:45;;;;;;;8.75;1.55;;;15.40;99.90;;;;;;5005915;28;20030;-52
2024/04/05 09:59:14;;;;;;;7.07;1.55;;;15.30;99.90;;;;;;5001209;28;20360;-50
2024/04/05 10:01:40;;;;;;;;;;;15.30;99.90;;;;;;5006934;28;20113;-48
2024/04/05 10:04:07;;;;;;;5.22;2.10;;;15.30;99.90;;;;;;5005836;28;19909;-52
2024/04/05 10:06:38;;;;;;;8.45;2.53;;;15.40;99.90;;;;;;5003661;28;20553;-50
2024/04/05 10:09:16;;;;;;;6.50;1.90;;;15.40;99.90;;;;;;5005742;28;20045;-48
2024/04/05 10:11:43;;;;;;;9.13;2.03;;;15.40;99.90;;;;;;5007463;28;20022;-47
2024/04/05 10:14:10;;;;;;;8.75;1.50;;;15.50;99.90;;;;;;5005106;28;20026;-51
2024/04/05 10:16:36;;;;;;;6.95;2.22;;;15.50;99.90;;;;;;5005943;28;20049;-50
2024/04/05 10:19:09;;;;;;;6.53;1.70;;;15.70;99.90;;;;;;5006380;28;20038;-53
2024/04/05 10:21:36;;;;;;;9.23;3.60;;;15.80;99.90;;;;;;5006874;28;20236;-50
2024/04/05 10:24:05;;;;;;;4.07;1.50;;;15.90;99.90;;;;;;5006803;28;20030;-48
2024/04/05 10:26:34;;;;;;;9.60;1.98;;;16.00;99.90;;;;;;5008659;28;20092;-51
2024/04/05 10:29:04;;;;;;;;;;;16.10;99.90;;;;;;5011121;28;20117;-52
2024/04/05 10:31:34;;;;;;;6.93;1.40;;;16.10;99.90;;;;;;5010601;28;20259;-51
2024/04/05 10:34:01;;;;;;;5.93;1.70;;;16.10;99.90;;;;;;5012611;28;20057;-53
2024/04/05 10:36:31;;;;;;;7.13;2.08;;;16.00;99.90;;;;;;5013077;28;20029;-53
2024/04/05 10:38:56;;;;;;;5.30;1.15;;;16.10;99.90;;;;;;5013297;28;20029;-53
2024/04/05 10:41:22;;;;;;;5.55;1.30;;;16.20;99.90;;;;;;5013772;28;20055;-48
2024/04/05 10:43:59;;;;;;;8.18;1.63;;;16.40;99.90;;;;;;5013893;28;20038;-52
2024/04/05 10:46:25;;;;;;;5.40;1.50;;;16.50;99.90;;;;;;5013682;28;20040;-51
2024/04/05 10:48:58;;;;;;;6.68;1.40;;;16.60;99.90;;;;;;5013816;28;20072;-53
2024/04/05 10:51:24;;;;;;;4.75;1.67;;;16.60;99.90;;;;;;5013520;28;20034;-50
2024/04/05 10:53:49;;;;;;;4.70;1.77;;;16.50;99.90;;;;;;5013879;28;20036;-49
2024/04/05 10:56:15;;;;;;;4.97;1.58;;;16.50;99.90;;;;;;5013207;28;20091;-52
2024/04/05 10:58:41;;;;;;;4.88;1.48;;;16.50;99.90;;;;;;5013692;28;20069;-52
2024/04/05 11:01:07;;;;;;;7.80;1.67;;;16.60;99.90;;;;;;5013335;28;20052;-48
2024/04/05 11:03:33;;;;;;;6.22;1.80;;;16.70;99.90;;;;;;4998215;28;20042;-48
2024/04/05 11:06:05;;;;;;;5.47;1.80;;;16.70;99.90;;;;;;5008095;28;20107;-52
2024/04/05 11:08:32;;;;;;;8.10;1.77;;;16.70;99.90;;;;;;5007894;28;20164;-50
2024/04/05 11:10:58;;;;;;;5.43;1.40;;;16.70;99.90;;;;;;5009485;28;20030;-51
2024/04/05 11:13:26;;;;;;;5.00;1.52;;;16.70;99.90;;;;;;5009312;28;20113;-51
2024/04/05 11:16:04;;;;;;;3.97;1.20;;;16.70;99.90;;;;;;5007830;28;20038;-49
2024/04/05 11:18:37;;;;;;;5.43;1.30;;;16.80;99.90;;;;;;5011583;28;20479;-52
2024/04/05 11:21:03;;;;;;;4.75;2.10;;;16.90;99.90;;;;;;5012535;28;20878;-53
2024/04/05 11:23:29;;;;;;;5.72;1.55;;;17.20;99.90;;;;;;5012583;28;20103;-53
2024/04/05 11:25:56;;;;;;;7.40;2.05;;;17.40;99.90;;;;;;5007016;28;20029;-53
2024/04/05 11:28:23;;;;;;;4.10;1.20;;;17.70;99.90;;;;;;5011219;28;20040;-50
2024/04/05 11:30:50;;;;;;;8.18;2.72;;;17.80;99.90;;;;;;5010683;28;20402;-49
2024/04/05 11:33:16;;;;;;;6.00;1.38;;;17.70;99.90;;;;;;5011517;28;20125;-52
2024/04/05 11:35:48;;;;;;;4.50;1.90;;;17.70;99.90;;;;;;5006594;28;20097;-53
2024/04/05 11:38:15;;;;;;;6.32;1.58;;;17.60;99.90;;;;;;5007900;28;20293;-52
2024/04/05 11:40:42;;;;;;;6.38;2.42;;;17.50;99.90;;;;;;5011382;28;20034;-51
2024/04/05 11:43:09;;;;;;;5.25;1.83;;;17.40;99.90;;;;;;5003074;28;20030;-51
2024/04/05 11:45:35;;;;;;;4.90;1.70;;;17.30;99.90;;;;;;5005391;28;20105;-53
2024/04/05 11:48:02;;;;;;;8.07;2.25;;;17.20;99.90;;;;;;5011583;28;20033;-49
2024/04/05 11:50:28;;;;;;;8.43;2.33;;;17.20;99.90;;;;;;5011379;28;20183;-49
2024/04/05 11:52:53;;;;;;;4.90;1.80;;;17.10;99.90;;;;;;5012178;28;20152;-52
2024/04/05 11:55:20;;;;;;;5.50;1.58;;;17.10;99.90;;;;;;5012105;28;20053;-49
2024/04/05 11:57:45;;;;;;;3.35;1.50;;;17.10;99.90;;;;;;5012099;28;20030;-48
2024/04/05 12:00:12;;;;;;;3.67;1.40;;;17.20;99.90;;;;;;5011750;28;20399;-50
2024/04/05 12:02:39;;;;;;;6.32;1.52;;;17.40;99.90;;;;;;5011393;28;20440;-48
2024/04/05 12:05:07;;;;;;;5.63;1.27;;;17.50;99.90;;;;;;5008838;28;20235;-48
2024/04/05 12:07:33;;;;;;;4.30;1.38;;;17.50;99.90;;;;;;5009612;28;20030;-49
2024/04/05 12:09:59;;;;;;;4.68;1.48;;;17.50;99.90;;;;;;5002285;28;20084;-49
2024/04/05 12:12:26;;;;;;;4.28;1.25;;;17.50;99.90;;;;;;5010779;28;20034;-49
2024/04/05 12:14:51;;;;;;;7.18;1.40;;;17.60;99.90;;;;;;5010208;28;20037;-53
2024/04/05 12:17:17;;;;;;;3.70;1.17;;;17.70;99.90;;;;;;5009880;28;20033;-50
2024/04/05 12:19:42;;;;;;;5.07;1.38;;;17.70;99.90;;;;;;5008725;28;20089;-48
2024/04/05 12:22:08;;;;;;;4.22;1.30;;;17.80;99.90;;;;;;5010334;28;20109;-49
2024/04/05 12:24:34;;;;;;;3.95;1.30;;;17.80;99.90;;;;;;5010257;28;20029;-52
2024/04/05 12:27:02;;;;;;;3.17;0.98;;;17.80;99.90;;;;;;5010352;28;20553;-48
2024/04/05 12:29:27;;;;;;;5.50;1.38;;;17.90;99.90;;;;;;5011257;28;20038;-52
2024/04/05 12:31:54;;;;;;;4.50;1.08;;;18.00;99.90;;;;;;5011670;28;20534;-52
2024/04/05 12:34:20;;;;;;;3.97;1.20;;;18.00;99.90;;;;;;5011259;28;20030;-52
2024/04/05 12:36:46;;;;;;;5.13;1.10;;;18.10;99.90;;;;;;5006329;28;20030;-52
2024/04/05 12:39:24;;;;;;;2.70;1.00;;;18.10;99.90;;;;;;5009814;28;20443;-49